Time;durP1;ratioP1;P1;durP2;ratioP2;P2;SDS_P1;SDS_P2;PMS_P1;PMS_P2;Temp;Humidity;BMP_temperature;BMP_pressure;BME280_temperature;BME280_humidity;BME280_pressure;Samples;Min_cycle;Max_cycle;Signal;HPM_P1;HPM_P2
2022/09/23 00:01:23;;;;;;;12.65;2.45;;;20.70;87.20;;;;;;5070215;28;20190;-55
2022/09/23 00:03:51;;;;;;;9.07;2.08;;;20.70;87.60;;;;;;5071290;28;20027;-55
2022/09/23 00:06:24;;;;;;;8.23;2.00;;;20.70;87.30;;;;;;5071326;28;20024;-55
2022/09/23 00:08:53;;;;;;;11.75;2.47;;;20.80;87.30;;;;;;5069986;28;20047;-55
2022/09/23 00:11:26;;;;;;;9.38;2.50;;;20.80;87.30;;;;;;5071012;28;20021;-55
2022/09/23 00:13:57;;;;;;;9.45;2.28;;;20.80;87.50;;;;;;5071024;28;20028;-55
2022/09/23 00:16:29;;;;;;;8.97;2.30;;;20.80;87.40;;;;;;5070326;28;20123;-55
2022/09/23 00:18:58;;;;;;;10.15;2.20;;;20.80;87.30;;;;;;5069791;28;20028;-55
2022/09/23 00:21:26;;;;;;;9.52;2.13;;;20.80;87.30;;;;;;5071347;28;20047;-55
2022/09/23 00:23:54;;;;;;;12.55;2.50;;;20.70;87.30;;;;;;5071250;28;20021;-55
2022/09/23 00:26:23;;;;;;;8.43;2.30;;;20.80;87.40;;;;;;5069342;28;20099;-54
2022/09/23 00:28:51;;;;;;;8.55;2.35;;;20.80;87.40;;;;;;5070341;28;20064;-54
2022/09/23 00:31:24;;;;;;;13.35;2.55;;;20.70;87.30;;;;;;5070923;28;20024;-54
2022/09/23 00:33:55;;;;;;;12.60;2.30;;;20.80;87.40;;;;;;5070756;28;20029;-55
2022/09/23 00:36:25;;;;;;;13.10;2.40;;;20.80;87.30;;;;;;5070946;28;20107;-55
2022/09/23 00:38:54;;;;;;;14.45;2.47;;;20.80;87.30;;;;;;5069141;28;20106;-55
2022/09/23 00:41:23;;;;;;;15.45;2.70;;;20.70;87.30;;;;;;5070596;28;20031;-55
2022/09/23 00:43:57;;;;;;;13.40;2.60;;;20.70;87.30;;;;;;5068751;28;20035;-54
2022/09/23 00:46:39;;;;;;;10.95;2.60;;;20.80;87.40;;;;;;5071253;28;20064;-55
2022/09/23 00:49:28;;;;;;;12.68;2.60;;;20.80;87.40;;;;;;5069175;28;20122;-55
2022/09/23 00:52:04;;;;;;;11.13;2.20;;;20.80;87.50;;;;;;5070953;28;20024;-55
2022/09/23 00:54:33;;;;;;;10.98;2.67;;;20.80;87.60;;;;;;5070713;28;20028;-55
2022/09/23 00:57:02;;;;;;;13.85;2.90;;;20.70;87.60;;;;;;5068992;28;20031;-55
2022/09/23 00:59:31;;;;;;;11.90;2.20;;;20.80;87.70;;;;;;5069150;28;20021;-56
2022/09/23 01:02:01;;;;;;;13.07;2.60;;;20.80;87.80;;;;;;5070351;28;20074;-55
2022/09/23 01:04:31;;;;;;;10.23;2.90;;;20.80;87.90;;;;;;5070562;28;20132;-54
2022/09/23 01:06:58;;;;;;;11.75;2.58;;;20.80;88.00;;;;;;5069686;28;20110;-58
2022/09/23 01:09:27;;;;;;;16.00;3.05;;;20.80;88.10;;;;;;5070683;28;20037;-54
2022/09/23 01:11:55;;;;;;;13.60;3.03;;;20.80;88.20;;;;;;5070644;28;20047;-54
2022/09/23 01:14:59;;;;;;;12.65;2.42;;;20.80;88.20;;;;;;5070064;28;20066;-55
2022/09/23 01:17:48;;;;;;;11.65;2.72;;;20.80;88.30;;;;;;5070571;28;20021;-55
2022/09/23 01:20:23;;;;;;;13.05;2.42;;;20.80;88.30;;;;;;5070294;28;20495;-55
2022/09/23 01:23:20;;;;;;;17.55;3.45;;;20.80;88.40;;;;;;5070471;28;20016;-56
2022/09/23 01:26:32;;;;;;;16.45;2.97;;;20.80;88.40;;;;;;5068723;28;20035;-55
2022/09/23 01:29:34;;;;;;;18.17;2.95;;;20.80;88.40;;;;;;5068487;28;20404;-55
2022/09/23 01:32:17;;;;;;;15.23;3.22;;;20.70;88.40;;;;;;5074177;28;20043;-55
2022/09/23 01:35:27;;;;;;;13.00;2.92;;;20.80;88.50;;;;;;5072684;28;20028;-55
2022/09/23 01:37:58;;;;;;;11.77;2.55;;;20.80;88.60;;;;;;5074496;28;20063;-55
2022/09/23 01:41:07;;;;;;;16.95;2.75;;;20.70;88.70;;;;;;5074130;28;20127;-55
2022/09/23 01:43:41;;;;;;;15.05;2.50;;;20.70;88.80;;;;;;5020344;28;20036;-55
2022/09/23 01:46:18;;;;;;;15.35;2.65;;;20.70;89.00;;;;;;5072660;28;20054;-55
2022/09/23 01:49:14;;;;;;;13.38;3.10;;;20.70;89.20;;;;;;5073918;28;20033;-57
2022/09/23 01:51:47;;;;;;;10.73;2.42;;;20.70;89.20;;;;;;5065956;28;20043;-56
2022/09/23 01:54:49;;;;;;;11.07;2.65;;;20.70;89.20;;;;;;5073935;28;20103;-54
2022/09/23 01:57:46;;;;;;;12.70;2.95;;;20.70;89.20;;;;;;5019875;28;20036;-54
2022/09/23 02:00:17;;;;;;;10.70;3.00;;;20.80;89.00;;;;;;5072421;28;20120;-54
2022/09/23 02:03:00;;;;;;;10.43;2.00;;;20.70;88.80;;;;;;5072510;28;20032;-54
2022/09/23 02:05:44;;;;;;;9.63;2.13;;;20.70;88.60;;;;;;5072729;28;20390;-54
2022/09/23 02:08:39;;;;;;;11.05;2.58;;;20.70;88.50;;;;;;5072358;28;20119;-54
2022/09/23 02:11:11;;;;;;;9.98;2.17;;;20.70;88.10;;;;;;5073600;28;20078;-54
2022/09/23 02:13:42;;;;;;;12.10;2.20;;;20.70;88.00;;;;;;5071726;28;20402;-54
2022/09/23 02:16:41;;;;;;;11.30;2.22;;;20.80;88.00;;;;;;5072385;28;20093;-54
2022/09/23 02:19:19;;;;;;;10.35;2.17;;;20.80;87.90;;;;;;5073635;28;20048;-55
2022/09/23 02:21:54;;;;;;;12.50;2.33;;;20.80;87.80;;;;;;5072240;28;20029;-55
2022/09/23 02:24:29;;;;;;;13.52;2.33;;;20.70;87.70;;;;;;5073415;28;20125;-54
2022/09/23 02:27:34;;;;;;;9.77;2.38;;;20.80;87.60;;;;;;5056059;28;20044;-54
2022/09/23 02:30:13;;;;;;;10.10;2.00;;;20.80;87.50;;;;;;5073583;28;20032;-53
2022/09/23 02:33:00;;;;;;;11.52;2.20;;;20.80;87.50;;;;;;5072080;28;20017;-53
2022/09/23 02:35:31;;;;;;;9.88;2.33;;;20.80;87.50;;;;;;5072475;28;20039;-54
2022/09/23 02:38:28;;;;;;;13.35;2.58;;;20.80;87.60;;;;;;5073039;28;20063;-54
2022/09/23 02:41:08;;;;;;;9.63;2.17;;;20.80;87.50;;;;;;5072938;28;20123;-54
2022/09/23 02:43:42;;;;;;;9.93;2.45;;;20.80;87.50;;;;;;5071234;28;20081;-54
2022/09/23 02:46:10;;;;;;;7.85;2.45;;;20.80;87.60;;;;;;5073116;28;20384;-54
2022/09/23 02:48:44;;;;;;;12.43;2.33;;;20.80;87.60;;;;;;5072648;28;20025;-54
2022/09/23 02:51:13;;;;;;;10.95;2.33;;;20.80;87.60;;;;;;5071749;28;20020;-53
2022/09/23 02:53:41;;;;;;;13.88;2.80;;;20.80;87.70;;;;;;5072784;28;20036;-55
2022/09/23 02:56:20;;;;;;;14.05;2.97;;;20.80;87.70;;;;;;5072662;28;20044;-55
2022/09/23 02:58:50;;;;;;;11.15;2.25;;;20.80;87.70;;;;;;5072318;28;20265;-55
2022/09/23 03:01:55;;;;;;;14.05;2.75;;;20.80;87.60;;;;;;5071563;28;20020;-55
2022/09/23 03:04:26;;;;;;;10.95;2.40;;;20.80;87.60;;;;;;5071362;28;20403;-54
2022/09/23 03:07:01;;;;;;;15.32;2.55;;;20.80;87.60;;;;;;5072965;28;20052;-55
2022/09/23 03:10:14;;;;;;;13.43;2.80;;;20.80;87.60;;;;;;5071188;28;20036;-54
2022/09/23 03:13:11;;;;;;;17.98;3.53;;;20.80;87.40;;;;;;5056879;28;20040;-54
2022/09/23 03:16:00;;;;;;;13.50;2.88;;;20.80;87.60;;;;;;5072552;28;20020;-55
2022/09/23 03:18:40;;;;;;;11.50;2.90;;;20.90;87.50;;;;;;5072828;28;20028;-55
2022/09/23 03:21:34;;;;;;;14.90;2.70;;;20.80;87.40;;;;;;5072460;28;20101;-55
2022/09/23 03:24:05;;;;;;;10.70;2.65;;;20.80;87.50;;;;;;5072333;28;20366;-55
2022/09/23 03:26:37;;;;;;;7.47;2.33;;;20.80;87.50;;;;;;5072436;28;20171;-55
2022/09/23 03:29:10;;;;;;;15.95;3.15;;;20.80;87.50;;;;;;5071744;28;20375;-55
2022/09/23 03:31:41;;;;;;;8.38;2.28;;;20.80;87.60;;;;;;5070909;28;20025;-55
2022/09/23 03:34:23;;;;;;;18.27;2.58;;;20.80;87.60;;;;;;5072019;28;20387;-55
2022/09/23 03:37:00;;;;;;;17.35;2.85;;;20.80;87.50;;;;;;5070898;28;20530;-55
2022/09/23 03:39:44;;;;;;;11.70;2.83;;;20.80;87.50;;;;;;5071987;28;20040;-54
2022/09/23 03:42:23;;;;;;;11.88;2.78;;;20.80;87.50;;;;;;5071498;28;20036;-55
2022/09/23 03:44:55;;;;;;;13.77;2.67;;;20.80;87.60;;;;;;5071927;28;20498;-54
2022/09/23 03:47:25;;;;;;;11.35;2.47;;;20.80;87.70;;;;;;5071677;28;20081;-54
2022/09/23 03:49:55;;;;;;;15.02;2.58;;;20.80;87.80;;;;;;5071706;28;20036;-55
2022/09/23 03:52:24;;;;;;;8.82;2.35;;;20.80;87.70;;;;;;5070662;28;20029;-55
2022/09/23 03:54:53;;;;;;;11.85;2.30;;;20.80;87.70;;;;;;5071456;28;20499;-54
2022/09/23 03:57:22;;;;;;;12.57;2.55;;;20.80;87.60;;;;;;5070776;28;20028;-55
2022/09/23 03:59:51;;;;;;;11.57;2.95;;;20.80;87.60;;;;;;5071474;28;20020;-54
2022/09/23 04:02:20;;;;;;;10.52;2.38;;;20.80;87.50;;;;;;5071267;28;20029;-54
2022/09/23 04:04:48;;;;;;;9.30;2.30;;;20.80;87.50;;;;;;5071422;28;20031;-54
2022/09/23 04:07:16;;;;;;;9.35;2.55;;;20.80;87.40;;;;;;5071201;28;20064;-54
2022/09/23 04:09:44;;;;;;;9.75;2.55;;;20.80;87.30;;;;;;5071120;28;20036;-54
2022/09/23 04:12:14;;;;;;;10.02;2.20;;;20.80;87.20;;;;;;5070920;28;20092;-54
2022/09/23 04:14:43;;;;;;;12.13;2.47;;;20.80;87.00;;;;;;5069852;28;20094;-54
2022/09/23 04:17:12;;;;;;;9.95;2.17;;;20.80;86.90;;;;;;5053324;28;20035;-54
2022/09/23 04:19:40;;;;;;;9.55;2.17;;;20.80;86.80;;;;;;5071174;28;20036;-54
2022/09/23 04:22:09;;;;;;;8.52;2.33;;;20.80;86.60;;;;;;5053169;28;20108;-54
2022/09/23 04:24:38;;;;;;;11.40;2.55;;;20.80;86.50;;;;;;5069760;28;20064;-54
2022/09/23 04:27:05;;;;;;;11.48;2.75;;;20.80;86.40;;;;;;5069185;28;20070;-55
2022/09/23 04:29:34;;;;;;;10.85;2.50;;;20.80;86.40;;;;;;5070961;28;20399;-55
2022/09/23 04:32:02;;;;;;;12.20;2.38;;;20.80;86.50;;;;;;5070786;28;20021;-55
2022/09/23 04:34:30;;;;;;;12.65;2.80;;;20.80;86.50;;;;;;5069683;28;20028;-55
2022/09/23 04:36:58;;;;;;;11.07;2.50;;;20.80;86.50;;;;;;5071310;28;20028;-55
2022/09/23 04:39:26;;;;;;;11.05;2.30;;;20.80;86.50;;;;;;5069476;28;20441;-55
2022/09/23 04:41:54;;;;;;;11.20;2.20;;;20.80;86.60;;;;;;5071574;28;20126;-55
2022/09/23 04:44:23;;;;;;;8.90;2.58;;;20.80;86.40;;;;;;5070493;28;20165;-54
2022/09/23 04:46:51;;;;;;;8.50;2.30;;;20.80;86.30;;;;;;5070647;28;20025;-55
2022/09/23 04:49:19;;;;;;;14.23;2.78;;;20.80;86.30;;;;;;5070765;28;20089;-55
2022/09/23 04:51:47;;;;;;;9.40;2.38;;;20.80;86.20;;;;;;5069443;28;20092;-55
2022/09/23 04:54:15;;;;;;;10.65;2.20;;;20.80;86.20;;;;;;5070562;28;20024;-54
2022/09/23 04:56:43;;;;;;;10.10;2.28;;;20.80;86.00;;;;;;5070531;28;20390;-55
2022/09/23 04:59:12;;;;;;;11.35;2.47;;;20.80;85.90;;;;;;5068900;28;20021;-55
2022/09/23 05:01:42;;;;;;;12.15;2.55;;;20.80;85.80;;;;;;5070501;28;20094;-55
2022/09/23 05:04:12;;;;;;;11.43;2.35;;;20.80;85.70;;;;;;5070226;28;20048;-55
2022/09/23 05:06:43;;;;;;;15.50;2.40;;;20.80;85.70;;;;;;5070533;28;20028;-55
2022/09/23 05:09:17;;;;;;;10.98;2.50;;;20.80;85.70;;;;;;5068837;28;20041;-54
2022/09/23 05:11:45;;;;;;;12.25;2.35;;;20.80;85.60;;;;;;5069258;28;20020;-54
2022/09/23 05:14:13;;;;;;;11.93;2.17;;;20.90;85.80;;;;;;5068559;28;20308;-54
2022/09/23 05:16:41;;;;;;;12.30;2.35;;;20.90;85.70;;;;;;5070540;28;20024;-55
2022/09/23 05:19:12;;;;;;;10.63;2.17;;;20.80;85.60;;;;;;5069026;28;20044;-54
2022/09/23 05:21:40;;;;;;;11.48;2.40;;;20.80;85.60;;;;;;5070792;28;20032;-54
2022/09/23 05:24:08;;;;;;;9.23;2.42;;;20.90;85.60;;;;;;5070013;28;20021;-54
2022/09/23 05:26:37;;;;;;;11.38;2.47;;;20.90;85.50;;;;;;5068934;28;20035;-55
2022/09/23 05:29:05;;;;;;;13.40;2.15;;;20.80;85.50;;;;;;5069855;28;20032;-55
2022/09/23 05:31:33;;;;;;;14.27;2.60;;;20.90;85.50;;;;;;5069030;28;20497;-55
2022/09/23 05:34:04;;;;;;;11.00;2.30;;;20.90;85.60;;;;;;5070035;28;20393;-55
2022/09/23 05:36:34;;;;;;;15.30;2.50;;;20.90;85.60;;;;;;5070250;28;20025;-55
2022/09/23 05:39:03;;;;;;;9.43;2.03;;;20.90;85.70;;;;;;5069820;28;20064;-54
2022/09/23 05:41:32;;;;;;;12.57;2.70;;;20.90;85.80;;;;;;5068903;28;20437;-55
2022/09/23 05:44:01;;;;;;;14.35;2.55;;;20.90;85.70;;;;;;5068491;28;20029;-55
2022/09/23 05:46:30;;;;;;;10.90;2.40;;;20.90;85.80;;;;;;5070031;28;20402;-54
2022/09/23 05:49:00;;;;;;;17.02;3.35;;;20.90;85.70;;;;;;5069942;28;20040;-56
2022/09/23 05:51:28;;;;;;;12.77;2.53;;;20.90;85.80;;;;;;5070459;28;20024;-54
2022/09/23 05:53:59;;;;;;;13.90;2.65;;;20.90;85.80;;;;;;5068891;28;20372;-54
2022/09/23 05:56:28;;;;;;;9.60;2.97;;;20.90;85.80;;;;;;5070695;28;20032;-55
2022/09/23 05:58:59;;;;;;;10.35;2.47;;;20.90;85.70;;;;;;5069805;28;20024;-54
2022/09/23 06:01:31;;;;;;;12.82;2.20;;;20.90;85.80;;;;;;5070861;28;20452;-57
2022/09/23 06:04:01;;;;;;;9.23;2.53;;;20.90;85.80;;;;;;5069726;28;20545;-55
2022/09/23 06:06:40;;;;;;;14.70;2.53;;;20.80;85.80;;;;;;5069069;28;20027;-55
2022/09/23 06:09:12;;;;;;;9.25;2.53;;;20.90;85.80;;;;;;5069812;28;20455;-55
2022/09/23 06:11:41;;;;;;;12.07;2.50;;;20.90;85.80;;;;;;5068748;28;20078;-54
2022/09/23 06:14:13;;;;;;;12.07;2.30;;;20.80;85.80;;;;;;5069111;28;20025;-54
2022/09/23 06:16:41;;;;;;;10.57;2.83;;;20.90;85.80;;;;;;5071060;28;20033;-54
2022/09/23 06:19:09;;;;;;;11.15;2.50;;;20.80;85.70;;;;;;5073592;28;20028;-56
2022/09/23 06:21:39;;;;;;;11.75;2.47;;;20.80;85.70;;;;;;5073429;28;20157;-56
2022/09/23 06:24:09;;;;;;;14.07;2.92;;;20.90;85.70;;;;;;5073238;28;20077;-55
2022/09/23 06:26:37;;;;;;;12.15;2.53;;;20.80;85.70;;;;;;5073280;28;20020;-54
2022/09/23 06:29:11;;;;;;;14.52;3.17;;;20.90;85.80;;;;;;5072887;28;20059;-54
2022/09/23 06:31:40;;;;;;;13.00;2.67;;;20.80;85.90;;;;;;5073331;28;20020;-54
2022/09/23 06:34:12;;;;;;;13.43;2.47;;;20.90;85.90;;;;;;5073301;28;20025;-54
2022/09/23 06:36:44;;;;;;;11.93;3.30;;;20.90;85.90;;;;;;5073194;28;20023;-54
2022/09/23 06:39:13;;;;;;;10.80;2.40;;;20.90;85.90;;;;;;5072600;28;20135;-55
2022/09/23 06:41:42;;;;;;;16.17;2.83;;;20.90;86.10;;;;;;5072987;28;20114;-55
2022/09/23 06:44:14;;;;;;;11.50;2.40;;;20.80;86.00;;;;;;5072668;28;20480;-54
2022/09/23 06:46:43;;;;;;;11.70;2.70;;;20.90;86.20;;;;;;5071823;28;20278;-54
2022/09/23 06:49:11;;;;;;;16.38;2.60;;;20.90;86.30;;;;;;5072864;28;20056;-55
2022/09/23 06:51:40;;;;;;;14.88;3.33;;;20.90;86.30;;;;;;5072847;28;20105;-54
2022/09/23 06:54:08;;;;;;;14.23;2.90;;;20.90;86.40;;;;;;5071357;28;20028;-55
2022/09/23 06:56:36;;;;;;;10.65;2.47;;;20.90;86.40;;;;;;5072836;28;20039;-54
2022/09/23 06:59:04;;;;;;;15.07;3.10;;;20.80;86.40;;;;;;5072303;28;20029;-55
2022/09/23 07:01:33;;;;;;;13.90;2.83;;;20.80;86.50;;;;;;5072952;28;20021;-55
2022/09/23 07:04:01;;;;;;;14.82;2.53;;;20.80;86.40;;;;;;5072580;28;20048;-55
2022/09/23 07:06:30;;;;;;;12.02;2.75;;;20.80;86.50;;;;;;5072594;28;20099;-55
2022/09/23 07:08:57;;;;;;;16.50;3.00;;;20.90;86.70;;;;;;5072598;28;20040;-55
2022/09/23 07:11:26;;;;;;;17.40;3.35;;;20.80;87.00;;;;;;5073069;28;20028;-55
2022/09/23 07:13:54;;;;;;;13.63;3.22;;;20.80;87.20;;;;;;5072430;28;20021;-55
2022/09/23 07:16:23;;;;;;;15.13;2.75;;;20.80;87.30;;;;;;5071264;28;20106;-55
2022/09/23 07:18:52;;;;;;;11.15;2.75;;;20.80;87.30;;;;;;5071097;28;20479;-55
2022/09/23 07:21:20;;;;;;;11.95;3.22;;;20.80;87.40;;;;;;5072441;28;20028;-55
2022/09/23 07:23:50;;;;;;;12.40;2.47;;;20.80;87.40;;;;;;5072192;28;20116;-54
2022/09/23 07:26:19;;;;;;;15.63;3.10;;;20.80;87.40;;;;;;5072127;28;20238;-54
2022/09/23 07:28:47;;;;;;;14.50;3.08;;;20.90;87.40;;;;;;5070959;28;20429;-54
2022/09/23 07:31:17;;;;;;;13.50;2.67;;;20.80;87.30;;;;;;5072220;28;20028;-54
2022/09/23 07:33:46;;;;;;;15.65;3.03;;;20.90;87.50;;;;;;5072005;28;20333;-54
2022/09/23 07:36:19;;;;;;;15.90;2.90;;;20.80;87.40;;;;;;5071886;28;20020;-54
2022/09/23 07:38:47;;;;;;;14.40;2.65;;;20.80;87.40;;;;;;5071476;28;20045;-55
2022/09/23 07:41:17;;;;;;;16.30;2.88;;;20.80;87.40;;;;;;5070804;28;20033;-55
2022/09/23 07:43:46;;;;;;;18.63;2.65;;;20.80;87.30;;;;;;5071460;28;20043;-55
2022/09/23 07:46:17;;;;;;;14.45;3.00;;;20.90;87.40;;;;;;5071966;28;20094;-54
2022/09/23 07:48:46;;;;;;;17.30;2.85;;;20.90;87.50;;;;;;5071911;28;20467;-55
2022/09/23 07:51:19;;;;;;;22.27;3.65;;;20.80;87.40;;;;;;5071833;28;20111;-54
2022/09/23 07:53:52;;;;;;;15.05;2.95;;;20.80;87.40;;;;;;5070109;28;20114;-55
2022/09/23 07:56:25;;;;;;;12.50;2.85;;;20.80;87.40;;;;;;5071620;28;20024;-54
2022/09/23 07:58:59;;;;;;;15.18;2.80;;;20.80;87.50;;;;;;5070132;28;20181;-54
2022/09/23 08:01:40;;;;;;;11.30;2.90;;;20.80;87.60;;;;;;5070655;28;20039;-54
2022/09/23 08:04:12;;;;;;;12.60;2.40;;;20.80;87.70;;;;;;5071433;28;20356;-54
2022/09/23 08:06:43;;;;;;;16.17;2.85;;;20.80;87.70;;;;;;5071576;28;20027;-55
2022/09/23 08:09:12;;;;;;;14.80;2.83;;;20.80;87.80;;;;;;5069782;28;20079;-54
2022/09/23 08:11:41;;;;;;;15.80;3.22;;;20.80;87.80;;;;;;5071359;28;20495;-54
2022/09/23 08:14:11;;;;;;;13.98;3.40;;;20.70;87.90;;;;;;5070677;28;20429;-54
2022/09/23 08:16:41;;;;;;;11.85;3.10;;;20.70;87.90;;;;;;5071229;28;20425;-55
2022/09/23 08:19:09;;;;;;;12.38;2.40;;;20.80;87.90;;;;;;5069872;28;20107;-55
2022/09/23 08:21:38;;;;;;;14.63;3.47;;;20.70;88.00;;;;;;5071067;28;20375;-54
2022/09/23 08:24:14;;;;;;;14.35;2.92;;;20.80;88.10;;;;;;5071021;28;20089;-54
2022/09/23 08:26:44;;;;;;;15.52;3.00;;;20.80;88.10;;;;;;5053273;28;20059;-54
2022/09/23 08:29:14;;;;;;;13.15;2.55;;;20.80;88.10;;;;;;5070593;28;20135;-55
2022/09/23 08:31:43;;;;;;;12.40;3.22;;;20.80;88.10;;;;;;5070884;28;20082;-54
2022/09/23 08:34:10;;;;;;;11.02;2.50;;;20.80;88.20;;;;;;5070920;28;20360;-54
2022/09/23 08:36:39;;;;;;;12.23;2.50;;;20.80;88.20;;;;;;5070955;28;20021;-53
2022/09/23 08:39:07;;;;;;;14.73;2.67;;;20.80;88.30;;;;;;5069780;28;20083;-55
2022/09/23 08:41:53;;;;;;;14.60;2.55;;;20.80;88.40;;;;;;5070854;28;20016;-54
2022/09/23 08:44:33;;;;;;;13.27;2.50;;;20.80;88.40;;;;;;5070214;28;20054;-55
2022/09/23 08:47:16;;;;;;;11.60;2.92;;;20.80;88.50;;;;;;5069468;28;20428;-55
2022/09/23 08:49:55;;;;;;;10.98;2.47;;;20.80;88.60;;;;;;5070767;28;20045;-55
2022/09/23 08:52:41;;;;;;;14.20;3.00;;;20.80;88.70;;;;;;5070491;28;20112;-55
2022/09/23 08:55:14;;;;;;;13.10;2.45;;;20.80;88.80;;;;;;5070727;28;20078;-55
2022/09/23 08:58:21;;;;;;;14.63;2.70;;;20.80;88.90;;;;;;5070157;28;20029;-55
2022/09/23 09:01:08;;;;;;;12.85;3.03;;;20.80;88.70;;;;;;5060693;28;20127;-55
2022/09/23 09:04:01;;;;;;;12.85;2.33;;;20.70;88.70;;;;;;5070490;28;20025;-54
2022/09/23 09:06:32;;;;;;;16.30;2.65;;;20.70;88.70;;;;;;5070656;28;20074;-55
2022/09/23 09:09:04;;;;;;;14.95;2.67;;;20.70;88.80;;;;;;5069011;28;20039;-55
2022/09/23 09:11:46;;;;;;;11.90;2.70;;;20.70;88.70;;;;;;5070633;28;20153;-55
2022/09/23 09:14:37;;;;;;;13.25;2.92;;;20.70;88.70;;;;;;5052101;28;20372;-55
2022/09/23 09:17:23;;;;;;;12.57;2.55;;;20.70;88.50;;;;;;5070338;28;20417;-55
2022/09/23 09:20:05;;;;;;;12.32;2.53;;;20.70;88.50;;;;;;5070378;28;20025;-54
2022/09/23 09:22:59;;;;;;;9.38;2.47;;;20.70;88.40;;;;;;5070432;28;20490;-54
2022/09/23 09:25:30;;;;;;;11.32;2.60;;;20.70;88.30;;;;;;5070860;28;20050;-55
2022/09/23 09:27:59;;;;;;;10.83;2.27;;;20.70;88.90;;;;;;5069756;28;20540;-55
2022/09/23 09:30:28;;;;;;;12.18;2.60;;;20.70;88.30;;;;;;5069485;28;20029;-54
2022/09/23 09:33:05;;;;;;;12.68;2.45;;;20.70;88.20;;;;;;5070481;28;20103;-54
2022/09/23 09:35:42;;;;;;;11.68;2.35;;;20.70;88.10;;;;;;5070184;28;20562;-55
2022/09/23 09:38:10;;;;;;;9.77;2.30;;;20.80;88.10;;;;;;5068708;28;20037;-55
2022/09/23 09:40:45;;;;;;;13.85;2.80;;;20.80;88.20;;;;;;5070169;28;20032;-55
2022/09/23 09:43:27;;;;;;;13.35;2.60;;;20.80;88.10;;;;;;5069667;28;20059;-54
2022/09/23 09:46:23;;;;;;;13.27;3.23;;;20.80;88.20;;;;;;5070707;28;20024;-54
2022/09/23 09:49:20;;;;;;;14.43;2.70;;;20.80;88.20;;;;;;5068429;28;20294;-54
2022/09/23 09:52:15;;;;;;;13.63;2.50;;;20.80;88.30;;;;;;5073105;28;20025;-54
2022/09/23 09:54:44;;;;;;;10.52;2.58;;;20.80;88.30;;;;;;5072788;28;20075;-54
2022/09/23 09:57:46;;;;;;;14.40;3.20;;;20.70;88.30;;;;;;5073325;28;20013;-54
2022/09/23 10:00:27;;;;;;;13.60;2.95;;;20.70;88.30;;;;;;5059914;28;20135;-54
2022/09/23 10:03:22;;;;;;;18.20;3.00;;;20.70;88.40;;;;;;5074513;28;20031;-55
2022/09/23 10:05:53;;;;;;;16.13;3.03;;;20.80;88.60;;;;;;5072611;28;20052;-54
2022/09/23 10:08:31;;;;;;;13.80;2.70;;;20.70;88.60;;;;;;5073384;28;20064;-55
2022/09/23 10:10:59;;;;;;;15.98;2.97;;;20.70;88.70;;;;;;5073721;28;20028;-54
2022/09/23 10:13:29;;;;;;;13.93;2.63;;;20.70;88.70;;;;;;5073426;28;20471;-55
2022/09/23 10:15:59;;;;;;;16.23;3.28;;;20.70;88.80;;;;;;5073914;28;20036;-55
2022/09/23 10:18:38;;;;;;;17.88;3.20;;;20.70;88.90;;;;;;5073742;28;20028;-55
2022/09/23 10:21:13;;;;;;;18.05;2.95;;;20.70;89.00;;;;;;5055604;28;20070;-55
2022/09/23 10:23:46;;;;;;;17.33;3.28;;;20.70;89.00;;;;;;5073327;28;20434;-55
2022/09/23 10:26:18;;;;;;;9.88;2.38;;;20.70;89.00;;;;;;5073205;28;20028;-56
2022/09/23 10:28:49;;;;;;;;;;;20.70;89.10;;;;;;5073350;28;20120;-55
2022/09/23 10:31:44;;;;;;;13.30;3.20;;;20.70;89.10;;;;;;5073317;28;19908;-55
2022/09/23 10:34:28;;;;;;;13.23;3.03;;;20.70;89.20;;;;;;5071299;28;20040;-55
2022/09/23 10:37:18;;;;;;;11.25;3.45;;;20.70;89.20;;;;;;5072178;28;20032;-55
2022/09/23 10:48:56;;;;;;;14.32;3.50;;;20.70;89.30;;;;;;5073182;28;20614;-55
2022/09/23 10:51:37;;;;;;;16.85;3.42;;;20.70;89.50;;;;;;5073224;28;20430;-55
2022/09/23 10:54:21;;;;;;;15.25;4.07;;;20.70;89.60;;;;;;5071480;28;20525;-55
2022/09/23 10:56:58;;;;;;;14.98;3.67;;;20.70;89.60;;;;;;5072775;28;20091;-55
2022/09/23 10:59:26;;;;;;;16.15;3.80;;;20.80;89.80;;;;;;5073025;28;20024;-55
2022/09/23 11:02:20;;;;;;;16.60;3.67;;;20.70;89.90;;;;;;5073243;28;20116;-55
2022/09/23 11:05:03;;;;;;;13.73;3.60;;;20.70;89.80;;;;;;5071560;28;20496;-55
2022/09/23 11:07:49;;;;;;;19.83;4.32;;;20.70;89.90;;;;;;5072325;28;20039;-55
2022/09/23 11:10:54;;;;;;;12.75;4.00;;;20.70;90.00;;;;;;5072593;28;20538;-55
2022/09/23 11:14:04;;;;;;;19.63;5.15;;;20.70;90.00;;;;;;5071863;28;20028;-55
2022/09/23 11:16:44;;;;;;;20.73;5.20;;;20.70;90.00;;;;;;4994038;28;20117;-55
2022/09/23 11:19:44;;;;;;;18.95;4.65;;;20.70;90.10;;;;;;5067943;28;20444;-55
2022/09/23 11:22:36;;;;;;;17.42;5.80;;;20.70;90.10;;;;;;5072114;28;20359;-55
2022/09/23 11:25:23;;;;;;;14.63;5.20;;;20.70;90.10;;;;;;5071154;28;20336;-54
2022/09/23 11:28:21;;;;;;;18.17;6.90;;;20.70;90.10;;;;;;5070410;28;20071;-54
2022/09/23 11:31:05;;;;;;;20.48;7.18;;;20.70;90.00;;;;;;5070799;28;20029;-54
2022/09/23 11:33:53;;;;;;;18.83;6.45;;;20.70;90.00;;;;;;5070813;28;20270;-55
2022/09/23 11:36:27;;;;;;;17.75;6.85;;;20.70;90.00;;;;;;5070631;28;20048;-55
2022/09/23 11:38:58;;;;;;;20.02;8.18;;;20.70;90.00;;;;;;5070911;28;20057;-55
2022/09/23 11:41:33;;;;;;;21.58;7.68;;;20.70;90.00;;;;;;5072390;28;20173;-55
2022/09/23 11:44:27;;;;;;;25.92;7.35;;;20.70;90.00;;;;;;5070082;28;20024;-55
2022/09/23 11:47:02;;;;;;;19.42;6.72;;;20.70;90.10;;;;;;5070944;28;20025;-55
2022/09/23 11:49:39;;;;;;;23.15;7.45;;;20.80;90.20;;;;;;5071726;28;20055;-55
2022/09/23 11:52:28;;;;;;;18.98;7.30;;;20.70;90.20;;;;;;5071443;28;20438;-55
2022/09/23 11:55:38;;;;;;;21.85;8.50;;;20.70;90.20;;;;;;5072278;28;20028;-54
2022/09/23 11:58:18;;;;;;;19.10;7.65;;;20.70;90.20;;;;;;5066452;28;20109;-55
2022/09/23 12:01:00;;;;;;;24.48;8.70;;;20.70;90.30;;;;;;5071567;28;20433;-55
2022/09/23 12:04:00;;;;;;;23.58;8.75;;;20.70;90.30;;;;;;5071952;28;20023;-55
2022/09/23 12:06:39;;;;;;;19.15;7.38;;;20.70;90.30;;;;;;5070294;28;20031;-55
2022/09/23 12:09:27;;;;;;;21.60;6.90;;;20.70;90.20;;;;;;5069923;28;20093;-55
2022/09/23 12:12:25;;;;;;;19.77;6.90;;;20.70;90.20;;;;;;5070236;28;20110;-54
2022/09/23 12:15:08;;;;;;;21.95;6.65;;;20.70;90.20;;;;;;5070834;28;20159;-54
2022/09/23 12:18:01;;;;;;;19.85;7.20;;;20.70;90.20;;;;;;5071039;28;20405;-54
2022/09/23 12:21:12;;;;;;;18.45;6.28;;;20.70;90.10;;;;;;5071553;28;20058;-56
2022/09/23 12:24:00;;;;;;;14.68;5.95;;;20.70;90.10;;;;;;5069454;28;20070;-54
2022/09/23 12:26:30;;;;;;;15.85;6.22;;;20.70;90.10;;;;;;5071445;28;20028;-54
2022/09/23 12:29:02;;;;;;;15.68;6.30;;;20.70;90.00;;;;;;5071361;28;20116;-54
2022/09/23 12:31:36;;;;;;;17.10;5.85;;;20.70;90.00;;;;;;5070947;28;20067;-54
2022/09/23 12:34:20;;;;;;;17.50;6.85;;;20.70;90.00;;;;;;5070809;28;20122;-55
2022/09/23 12:36:48;;;;;;;19.05;7.15;;;20.70;89.90;;;;;;5069185;28;20061;-54
2022/09/23 12:39:29;;;;;;;16.17;6.18;;;20.70;89.80;;;;;;5070389;28;20040;-54
2022/09/23 12:42:04;;;;;;;17.30;7.00;;;20.70;89.70;;;;;;5071088;28;20021;-55
2022/09/23 12:44:40;;;;;;;17.23;5.68;;;20.80;89.70;;;;;;5070769;28;20421;-55
2022/09/23 12:47:23;;;;;;;17.85;5.78;;;20.80;89.70;;;;;;5070630;28;20035;-54
2022/09/23 12:49:53;;;;;;;16.10;5.95;;;20.80;89.60;;;;;;5069188;28;20048;-54
2022/09/23 12:52:28;;;;;;;16.17;5.55;;;20.80;89.60;;;;;;5070263;28;20024;-54
2022/09/23 12:55:18;;;;;;;19.60;5.97;;;20.80;89.50;;;;;;5070989;28;20079;-54
2022/09/23 12:57:47;;;;;;;18.25;5.65;;;20.80;89.50;;;;;;5068467;28;20111;-55
2022/09/23 13:00:27;;;;;;;14.90;5.90;;;20.80;89.50;;;;;;5070298;28;20024;-55
2022/09/23 13:08:41;;;;;;;15.20;5.63;;;20.80;89.50;;;;;;5068872;28;20043;-55
2022/09/23 13:11:30;;;;;;;16.67;5.25;;;20.80;89.40;;;;;;5070576;28;20078;-54
2022/09/23 13:14:02;;;;;;;15.40;5.95;;;20.80;89.30;;;;;;5068900;28;20028;-55
2022/09/23 13:16:44;;;;;;;16.33;5.30;;;20.70;89.40;;;;;;5068862;28;20398;-55
2022/09/23 13:19:27;;;;;;;14.13;5.05;;;20.80;89.30;;;;;;5070188;28;20085;-55
2022/09/23 13:22:07;;;;;;;17.02;5.53;;;20.80;89.30;;;;;;5070470;28;20055;-55
2022/09/23 13:24:53;;;;;;;19.48;6.03;;;20.80;89.30;;;;;;5068847;28;20107;-54
2022/09/23 13:27:35;;;;;;;19.65;5.43;;;20.70;89.30;;;;;;5069749;28;20050;-54
2022/09/23 13:30:18;;;;;;;14.48;4.90;;;20.70;89.30;;;;;;5068917;28;20040;-55
2022/09/23 13:33:15;;;;;;;15.10;5.07;;;20.80;89.20;;;;;;5069985;28;20033;-54
2022/09/23 13:35:51;;;;;;;14.98;5.18;;;20.70;89.10;;;;;;5069837;28;20032;-54
2022/09/23 13:38:28;;;;;;;16.08;5.07;;;20.80;89.10;;;;;;5070044;28;20099;-55
2022/09/23 13:41:09;;;;;;;13.20;4.68;;;20.80;89.10;;;;;;5069250;28;20123;-54